Time;durP1;ratioP1;P1;durP2;ratioP2;P2;SDS_P1;SDS_P2;PMS_P1;PMS_P2;Temp;Humidity;BMP_temperature;BMP_pressure;BME280_temperature;BME280_humidity;BME280_pressure;Samples;Min_cycle;Max_cycle;Signal;HPM_P1;HPM_P2
2022/06/17 00:01:55;;;;;;;5.30;4.53;;;;;;;13.95;100.00;101156.18;1781824;80;21569;-86
2022/06/17 00:04:23;;;;;;;6.42;4.78;;;;;;;13.89;100.00;101157.98;1765313;81;21037;-87
2022/06/17 00:07:01;;;;;;;4.87;4.33;;;;;;;13.90;100.00;101162.77;1781486;80;21069;-87
2022/06/17 00:09:32;;;;;;;5.42;4.30;;;;;;;13.89;100.00;101161.91;1731479;81;20946;-86
2022/06/17 00:12:00;;;;;;;8.28;5.25;;;;;;;13.87;100.00;101158.58;1780196;80;20998;-87
2022/06/17 00:15:11;;;;;;;5.67;4.20;;;;;;;13.85;100.00;101160.02;1734714;82;20986;-88
2022/06/17 00:17:12;;;;;;;9.33;4.42;;;;;;;13.82;100.00;101158.95;1729958;81;21057;-87
2022/06/17 00:19:33;;;;;;;;;;;;;;;13.83;100.00;101158.00;1730385;82;20998;-87
2022/06/17 00:22:00;;;;;;;5.70;4.20;;;;;;;13.80;100.00;101153.48;1721759;81;21135;-87
2022/06/17 00:24:33;;;;;;;6.15;4.22;;;;;;;13.77;100.00;101154.58;1807208;79;20995;-87
2022/06/17 00:27:00;;;;;;;6.30;4.45;;;;;;;13.76;100.00;101156.83;1807358;78;21037;-88
2022/06/17 00:29:30;;;;;;;5.87;4.17;;;;;;;13.81;100.00;101159.08;1808552;79;21539;-88
2022/06/17 00:31:58;;;;;;;7.08;4.00;;;;;;;13.85;100.00;101150.86;1774871;79;21528;-87
2022/06/17 00:34:27;;;;;;;8.05;4.72;;;;;;;13.92;100.00;101156.45;1808643;78;21118;-87
2022/06/17 00:37:00;;;;;;;5.90;4.62;;;;;;;13.94;100.00;101153.70;1778009;79;21041;-88
2022/06/17 00:39:31;;;;;;;5.35;4.37;;;;;;;13.90;100.00;101160.15;1737004;82;20994;-88
2022/06/17 00:42:09;;;;;;;5.80;4.08;;;;;;;13.87;100.00;101151.58;1705779;83;21090;-87
2022/06/17 00:45:00;;;;;;;4.62;4.10;;;;;;;13.90;100.00;101158.34;1716840;83;21050;-87
2022/06/17 00:48:09;;;;;;;4.55;4.20;;;;;;;13.94;100.00;101153.70;1734859;82;21584;-89
2022/06/17 00:50:51;;;;;;;5.53;4.12;;;;;;;13.98;100.00;101153.33;1705717;84;21046;-90
2022/06/17 00:53:23;;;;;;;7.15;4.50;;;;;;;14.02;100.00;101155.22;1716634;82;20977;-87
2022/06/17 00:56:03;;;;;;;8.18;4.90;;;;;;;14.03;100.00;101154.27;1716716;83;21060;-90
2022/06/17 00:58:35;;;;;;;8.08;4.83;;;;;;;14.04;100.00;101155.44;1713515;83;20962;-87
2022/06/17 01:01:07;;;;;;;6.85;4.83;;;;;;;14.08;100.00;101155.20;1716576;81;21235;-88
2022/06/17 01:03:37;;;;;;;6.83;5.75;;;;;;;14.06;100.00;101151.38;1710174;82;21578;-88
2022/06/17 01:06:15;;;;;;;8.10;5.70;;;;;;;14.02;100.00;101149.98;1692035;83;33168;-87
2022/06/17 01:11:42;;;;;;;6.05;4.62;;;;;;;13.91;100.00;101143.46;1716926;83;21017;-87
2022/06/17 01:14:13;;;;;;;5.47;4.03;;;;;;;13.83;100.00;101153.26;1716878;83;21152;-87
2022/06/17 01:16:44;;;;;;;4.70;4.20;;;;;;;13.78;100.00;101156.23;1716450;82;20966;-88
2022/06/17 01:19:37;;;;;;;6.10;4.67;;;;;;;13.72;100.00;101155.43;1714829;81;21085;-87
2022/06/17 01:22:29;;;;;;;8.08;4.30;;;;;;;13.68;100.00;101156.61;1725885;82;21096;-88
2022/06/17 01:25:08;;;;;;;5.53;4.70;;;;;;;13.64;100.00;101156.03;1729919;83;21056;-88
2022/06/17 01:27:41;;;;;;;4.95;4.35;;;;;;;13.61;100.00;101155.44;1725572;83;21165;-88
2022/06/17 01:30:13;;;;;;;4.95;4.15;;;;;;;13.59;100.00;101153.42;1726418;83;22346;-87
2022/06/17 01:32:58;;;;;;;6.60;4.70;;;;;;;13.59;100.00;101154.27;1703744;83;21547;-88
2022/06/17 01:35:36;;;;;;;5.22;4.17;;;;;;;13.61;100.00;101157.59;1726105;81;21884;-88
2022/06/17 01:38:06;;;;;;;5.90;4.70;;;;;;;13.65;100.00;101149.03;1726336;83;21533;-87
2022/06/17 01:40:34;;;;;;;6.47;4.25;;;;;;;13.66;100.00;101142.35;1726332;83;21239;-88
2022/06/17 01:43:06;;;;;;;4.42;3.95;;;;;;;13.70;100.00;101141.63;1726345;81;20999;-88
2022/06/17 01:45:37;;;;;;;5.75;3.85;;;;;;;13.72;100.00;101141.03;1726259;81;21085;-92
2022/06/17 01:48:06;;;;;;;6.50;4.60;;;;;;;13.73;100.00;101144.02;1726750;81;21014;-88
2022/06/17 01:50:34;;;;;;;4.42;4.03;;;;;;;13.74;100.00;101141.72;1726363;82;21333;-88
2022/06/17 01:53:12;;;;;;;6.00;4.75;;;;;;;13.73;100.00;101136.16;1703751;83;21615;-88
2022/06/17 01:55:46;;;;;;;7.70;4.35;;;;;;;13.72;100.00;101135.31;1724523;83;21453;-88
2022/06/17 01:58:35;;;;;;;5.03;4.53;;;;;;;13.70;100.00;101137.70;1726088;83;21049;-88
2022/06/17 02:01:05;;;;;;;5.35;4.33;;;;;;;13.63;100.00;101139.15;1725954;83;21046;-88
2022/06/17 02:03:41;;;;;;;6.85;4.90;;;;;;;13.59;100.00;101139.02;1704094;81;21002;-88
2022/06/17 02:06:26;;;;;;;8.33;4.78;;;;;;;13.56;100.00;101142.27;1725755;81;21586;-87
2022/06/17 02:08:53;;;;;;;5.78;4.70;;;;;;;13.47;100.00;101140.38;1725562;83;21081;-88
2022/06/17 02:11:23;;;;;;;5.90;3.92;;;;;;;13.35;100.00;101141.29;1726396;83;21047;-88
2022/06/17 02:13:58;;;;;;;5.08;4.35;;;;;;;13.31;100.00;101140.70;1723523;83;21496;-89
2022/06/17 02:16:31;;;;;;;4.40;3.62;;;;;;;13.30;100.00;101144.75;1713134;83;21050;-88
2022/06/17 02:19:04;;;;;;;5.22;4.12;;;;;;;13.26;100.00;101144.98;1723612;81;21171;-88
2022/06/17 02:21:36;;;;;;;10.00;4.10;;;;;;;13.25;100.00;101147.27;1766448;81;21473;-88
2022/06/17 02:24:08;;;;;;;5.40;3.92;;;;;;;13.25;100.00;101143.34;1759838;80;21010;-89
2022/06/17 02:26:37;;;;;;;5.93;4.00;;;;;;;13.26;100.00;101144.16;1770767;81;21504;-88
2022/06/17 02:29:08;;;;;;;4.40;3.87;;;;;;;13.30;100.00;101144.75;1770843;81;21070;-88
2022/06/17 02:31:39;;;;;;;6.08;4.20;;;;;;;13.35;100.00;101145.22;1769693;80;21461;-88
2022/06/17 02:34:11;;;;;;;4.62;4.20;;;;;;;13.38;100.00;101148.45;1770802;81;21043;-88
2022/06/17 02:36:47;;;;;;;8.00;4.30;;;;;;;13.43;100.00;101146.78;1771100;80;21038;-91
2022/06/17 02:39:16;;;;;;;6.30;4.37;;;;;;;13.47;100.00;101144.30;1764674;81;20975;-88
2022/06/17 02:41:46;;;;;;;7.05;4.70;;;;;;;13.54;100.00;101149.39;1770958;80;21011;-88
2022/06/17 02:44:24;;;;;;;5.97;4.83;;;;;;;13.61;100.00;101146.28;1770669;81;21660;-88
2022/06/17 02:46:55;;;;;;;5.17;4.50;;;;;;;13.64;100.00;101147.36;1738598;81;20999;-88
2022/06/17 02:49:26;;;;;;;6.92;4.87;;;;;;;13.65;100.00;101152.46;1770623;81;21062;-88
2022/06/17 02:51:54;;;;;;;5.83;4.95;;;;;;;13.69;100.00;101150.43;1770783;81;21576;-88
2022/06/17 02:54:36;;;;;;;8.18;4.42;;;;;;;13.73;100.00;101152.68;1770887;81;20955;-88
2022/06/17 02:57:09;;;;;;;6.53;4.90;;;;;;;13.81;100.00;101157.77;1767517;81;21266;-88
2022/06/17 02:59:54;;;;;;;5.83;4.87;;;;;;;13.87;100.00;101161.20;1770731;81;21064;-88
2022/06/17 03:02:39;;;;;;;8.03;5.12;;;;;;;13.92;100.00;101156.45;1768390;80;21054;-88
2022/06/17 03:05:26;;;;;;;6.03;4.62;;;;;;;13.96;100.00;101147.38;1768404;80;21007;-89
2022/06/17 03:07:57;;;;;;;5.80;4.72;;;;;;;14.03;100.00;101153.77;1767574;80;20988;-88
2022/06/17 03:10:37;;;;;;;5.65;4.83;;;;;;;14.13;100.00;101156.95;1762518;80;21115;-88
2022/06/17 03:13:12;;;;;;;9.10;5.78;;;;;;;14.24;100.00;101154.76;1770634;81;21555;-88
2022/06/17 03:15:43;;;;;;;8.60;5.28;;;;;;;14.38;100.00;101160.18;1765148;80;21094;-88
2022/06/17 03:18:11;;;;;;;5.60;4.97;;;;;;;14.49;100.00;101153.58;1771063;81;21038;-88
2022/06/17 03:20:41;;;;;;;5.95;5.35;;;;;;;14.62;100.00;101152.89;1770986;80;21038;-88
2022/06/17 03:23:14;;;;;;;7.90;5.60;;;;;;;14.77;100.00;101153.91;1770817;80;21261;-88
2022/06/17 03:25:50;;;;;;;7.17;6.10;;;;;;;14.90;100.00;101144.52;1767259;81;21042;-88
2022/06/17 03:28:35;;;;;;;8.68;6.08;;;;;;;15.05;100.00;101150.25;1770100;81;21000;-88
2022/06/17 03:31:13;;;;;;;7.55;5.92;;;;;;;15.19;100.00;101149.89;1770333;81;21061;-88
2022/06/17 03:33:55;;;;;;;8.80;6.75;;;;;;;15.34;100.00;101145.12;1768579;81;21010;-89
2022/06/17 03:36:34;;;;;;;9.30;6.75;;;;;;;15.49;100.00;101147.36;1771163;80;21860;-88
2022/06/17 03:39:07;;;;;;;7.62;6.55;;;;;;;15.61;100.00;101143.64;1701718;80;21539;-89
2022/06/17 03:41:41;;;;;;;10.75;7.50;;;;;;;15.74;100.00;101146.83;1770671;80;21026;-88
2022/06/17 03:44:18;;;;;;;10.00;7.45;;;;;;;15.87;100.00;101148.41;1736129;81;21123;-89
2022/06/17 03:46:57;;;;;;;9.98;7.20;;;;;;;16.00;100.00;101140.27;1770465;80;21090;-88
2022/06/17 03:49:41;;;;;;;10.40;7.60;;;;;;;16.13;100.00;101146.55;1735225;81;22145;-88
2022/06/17 03:52:45;;;;;;;11.20;8.00;;;;;;;16.27;100.00;101145.28;1729872;81;21090;-87
2022/06/17 03:55:17;;;;;;;12.58;9.30;;;;;;;16.42;100.00;101152.27;1762935;80;21457;-87
2022/06/17 03:57:49;;;;;;;10.03;8.45;;;;;;;16.55;100.00;101152.31;1771073;81;21034;-88
2022/06/17 04:00:31;;;;;;;10.28;8.85;;;;;;;16.68;100.00;101145.91;1771033;81;21097;-88
2022/06/17 04:03:00;;;;;;;;;;;;;;;16.83;100.00;101142.34;1769441;81;21134;-88
2022/06/17 04:05:29;;;;;;;10.43;8.70;;;;;;;16.99;100.00;101143.91;1726736;83;20175;-87
2022/06/17 04:07:56;;;;;;;10.32;8.10;;;;;;;17.13;100.00;101139.98;1770977;81;21038;-87
2022/06/17 04:10:28;;;;;;;13.05;8.93;;;;;;;17.26;100.00;101138.80;1770809;80;21105;-88
2022/06/17 04:12:58;;;;;;;11.35;8.90;;;;;;;17.40;100.00;101138.30;1763566;80;21046;-88
2022/06/17 04:15:39;;;;;;;12.75;9.13;;;;;;;17.55;100.00;101133.84;1765825;81;21165;-87
2022/06/17 04:18:07;;;;;;;10.03;8.93;;;;;;;17.68;100.00;101130.84;1770975;81;21006;-87
2022/06/17 04:20:47;;;;;;;14.28;10.60;;;;;;;17.79;100.00;101135.91;1768128;80;21046;-88
2022/06/17 04:23:25;;;;;;;14.55;10.38;;;;;;;17.85;100.00;101132.66;1766028;81;21006;-87
2022/06/17 04:26:06;;;;;;;16.20;10.13;;;;;;;17.90;100.00;101129.58;1771999;80;21014;-88
2022/06/17 04:28:45;;;;;;;16.20;10.25;;;;;;;17.94;100.00;101131.77;1744500;81;21215;-88
2022/06/17 04:31:23;;;;;;;15.65;9.80;;;;;;;18.06;100.00;101135.52;1700837;80;21019;-87
2022/06/17 04:33:57;;;;;;;14.45;9.48;;;;;;;18.17;100.00;101131.31;1785818;79;21877;-88
2022/06/17 04:36:45;;;;;;;13.00;9.45;;;;;;;18.32;100.00;101129.44;1760942;79;21006;-87
2022/06/17 04:39:33;;;;;;;15.20;9.83;;;;;;;18.45;100.00;101124.61;1793678;79;21511;-87
2022/06/17 04:42:10;;;;;;;11.95;9.05;;;;;;;18.61;100.00;101134.42;1788308;79;21761;-87
2022/06/17 04:44:40;;;;;;;11.03;9.48;;;;;;;18.77;100.00;101128.42;1785514;79;21033;-87
2022/06/17 04:47:14;;;;;;;13.60;8.80;;;;;;;18.93;100.00;101129.52;1783378;80;21037;-87
2022/06/17 04:49:52;;;;;;;13.18;8.58;;;;;;;19.07;100.00;101126.28;1777318;80;20994;-88
2022/06/17 04:52:36;;;;;;;13.53;9.65;;;;;;;19.22;100.00;101127.32;1780865;80;21049;-87
2022/06/17 04:55:35;;;;;;;10.95;8.93;;;;;;;19.40;100.00;101126.39;1784781;80;21177;-87
2022/06/17 04:58:23;;;;;;;9.88;8.25;;;;;;;19.58;100.00;101126.77;1786037;80;21046;-88
2022/06/17 05:00:57;;;;;;;10.93;7.55;;;;;;;19.75;100.00;101126.28;1786393;80;21010;-89
2022/06/17 05:03:29;;;;;;;12.03;7.60;;;;;;;19.87;100.00;101121.02;1726230;80;21027;-88
2022/06/17 05:06:16;;;;;;;11.22;8.50;;;;;;;20.01;100.00;101120.88;1787514;80;21069;-87
2022/06/17 05:08:53;;;;;;;11.12;7.50;;;;;;;20.15;100.00;101125.48;1767613;80;21751;-87
2022/06/17 05:11:40;;;;;;;8.18;5.30;;;;;;;20.25;100.00;101121.84;1785813;80;21006;-88
2022/06/17 05:14:19;;;;;;;6.35;4.97;;;;;;;20.39;100.00;101121.16;1785087;80;21116;-88
2022/06/17 05:16:47;;;;;;;5.35;4.35;;;;;;;20.50;100.00;101120.02;1787571;79;21054;-86
2022/06/17 05:19:15;;;;;;;5.53;4.42;;;;;;;20.60;100.00;101113.20;1787767;80;21532;-87
2022/06/17 05:21:43;;;;;;;6.00;4.00;;;;;;;20.68;100.00;101110.53;1786477;79;21165;-87
2022/06/17 05:24:12;;;;;;;6.15;3.80;;;;;;;20.75;100.00;101110.72;1778120;79;21516;-88
2022/06/17 05:26:41;;;;;;;6.58;4.28;;;;;;;20.82;100.00;101110.84;1781515;80;20995;-86
2022/06/17 05:29:10;;;;;;;7.55;4.97;;;;;;;20.90;100.00;101114.30;1781611;79;21046;-87
2022/06/17 05:31:40;;;;;;;5.17;4.35;;;;;;;20.93;100.00;101113.12;1778840;80;21007;-87
2022/06/17 05:34:10;;;;;;;6.87;4.28;;;;;;;20.97;100.00;101107.80;1782020;79;21154;-88
2022/06/17 05:36:38;;;;;;;6.60;4.15;;;;;;;21.07;100.00;101111.59;1794445;79;21018;-87
2022/06/17 05:39:06;;;;;;;8.93;4.70;;;;;;;21.15;100.00;101116.84;1782534;79;21006;-87
2022/06/17 05:41:33;;;;;;;6.78;4.37;;;;;;;21.30;100.00;101106.83;1786163;79;20998;-87
2022/06/17 05:44:00;;;;;;;7.00;4.28;;;;;;;21.44;100.00;101104.75;1783017;79;20979;-86
2022/06/17 05:46:32;;;;;;;5.60;3.95;;;;;;;21.58;100.00;101108.51;1781089;79;21625;-85
2022/06/17 05:49:09;;;;;;;9.73;4.67;;;;;;;21.74;100.00;101108.88;1784323;79;21175;-86
2022/06/17 05:51:56;;;;;;;7.47;4.20;;;;;;;21.86;100.00;101107.95;1783512;79;21029;-86
2022/06/17 05:54:40;;;;;;;6.53;3.92;;;;;;;21.91;100.00;101106.94;1709171;83;20995;-86
2022/06/17 05:57:11;;;;;;;5.97;3.72;;;;;;;21.99;100.00;101108.16;1775803;79;21018;-87
2022/06/17 05:59:39;;;;;;;6.50;4.37;;;;;;;22.08;100.00;101102.30;1722859;82;21157;-89
2022/06/17 06:02:12;;;;;;;9.10;3.95;;;;;;;22.17;100.00;101103.05;1699243;83;21087;-86
2022/06/17 06:04:57;;;;;;;6.62;3.80;;;;;;;22.26;100.00;101103.29;1727796;82;21043;-86
2022/06/17 06:07:26;;;;;;;5.30;3.92;;;;;;;22.36;100.00;101103.02;1705946;83;21067;-87
2022/06/17 06:09:53;;;;;;;4.45;3.50;;;;;;;22.40;100.00;101102.18;1728549;83;21010;-86
2022/06/17 06:12:21;;;;;;;6.35;4.33;;;;;;;22.47;100.00;101104.45;1699562;84;21114;-88
2022/06/17 06:14:48;;;;;;;5.20;3.33;;;;;;;22.59;100.00;101104.31;1728272;83;20988;-87
2022/06/17 06:17:17;;;;;;;5.50;3.70;;;;;;;22.73;100.00;101104.48;1700051;84;21071;-87
2022/06/17 06:19:46;;;;;;;5.42;4.22;;;;;;;22.83;100.00;101096.55;1728358;83;20976;-87
2022/06/17 06:22:13;;;;;;;4.87;3.55;;;;;;;22.92;100.00;101096.45;1699617;83;21028;-86
2022/06/17 06:24:40;;;;;;;4.35;3.17;;;;;;;23.03;100.00;101093.33;1728372;83;21108;-87
2022/06/17 06:27:09;;;;;;;5.53;2.80;;;;;;;23.13;100.00;101094.34;1728044;83;21075;-86
2022/06/17 06:29:38;;;;;;;3.83;3.25;;;;;;;23.22;100.00;101097.24;1724978;82;21011;-87
2022/06/17 06:32:10;;;;;;;3.47;3.15;;;;;;;23.27;100.00;101093.54;1728242;82;21086;-85
2022/06/17 06:34:40;;;;;;;4.22;3.37;;;;;;;23.31;100.00;101090.00;1721544;83;21043;-90
2022/06/17 06:37:09;;;;;;;4.90;3.05;;;;;;;23.42;100.00;101084.69;1728680;82;21157;-86
2022/06/17 06:39:36;;;;;;;5.12;3.17;;;;;;;23.56;100.00;101086.95;1728312;83;21027;-86
2022/06/17 06:42:04;;;;;;;6.62;3.15;;;;;;;23.68;100.00;101085.93;1731684;82;21019;-86
2022/06/17 06:44:31;;;;;;;3.90;2.90;;;;;;;23.76;100.00;101085.80;1751658;81;21567;-85
2022/06/17 06:47:07;;;;;;;4.25;3.05;;;;;;;23.86;100.00;101088.95;1751773;81;21093;-90
2022/06/17 06:49:48;;;;;;;6.85;3.45;;;;;;;23.94;97.09;101083.53;1750863;81;21330;-86
2022/06/17 06:52:16;;;;;;;4.55;3.17;;;;;;;24.03;97.12;101086.05;1751611;81;21432;-85
2022/06/17 06:54:45;;;;;;;5.85;3.40;;;;;;;24.13;100.00;101084.37;1751576;81;21021;-86
2022/06/17 06:57:14;;;;;;;5.92;3.42;;;;;;;24.23;100.00;101079.05;1808120;78;21022;-86
2022/06/17 06:59:42;;;;;;;5.87;3.75;;;;;;;24.36;100.00;101072.96;1808104;79;21591;-86
2022/06/17 07:02:10;;;;;;;4.03;3.37;;;;;;;24.46;97.46;101069.97;1731424;81;21183;-86
2022/06/17 07:04:38;;;;;;;5.03;3.62;;;;;;;24.56;90.24;101066.41;1751536;81;20995;-85
2022/06/17 07:07:06;;;;;;;7.92;4.12;;;;;;;24.63;84.71;101061.66;1761994;81;21031;-85
2022/06/17 07:09:34;;;;;;;6.55;3.60;;;;;;;24.69;86.09;101063.02;1738400;81;21018;-86
2022/06/17 07:12:03;;;;;;;4.37;3.50;;;;;;;24.73;80.00;101062.12;1757509;80;21563;-85
2022/06/17 07:14:30;;;;;;;5.17;3.12;;;;;;;24.71;80.61;101053.00;1757618;80;21140;-86
2022/06/17 07:16:58;;;;;;;6.12;3.15;;;;;;;24.70;71.57;101057.20;1757509;81;21038;-87
2022/06/17 07:19:25;;;;;;;3.72;2.58;;;;;;;24.71;71.63;101058.33;1757547;80;20951;-86
2022/06/17 07:21:52;;;;;;;4.37;2.80;;;;;;;24.82;73.42;101054.80;1757612;81;21035;-86
2022/06/17 07:24:20;;;;;;;6.92;3.00;;;;;;;24.92;73.81;101051.22;1783555;79;21089;-86
2022/06/17 07:26:48;;;;;;;4.40;2.90;;;;;;;25.02;74.97;101053.52;1798554;79;21130;-90
2022/06/17 07:29:15;;;;;;;5.70;2.95;;;;;;;25.14;75.87;101053.23;1783405;79;21062;-87
2022/06/17 07:31:42;;;;;;;4.12;3.15;;;;;;;25.24;71.68;101046.17;1786391;79;21073;-90
2022/06/17 07:34:11;;;;;;;5.85;3.02;;;;;;;25.35;69.40;101046.11;1781569;79;21026;-89
2022/06/17 07:42:09;;;;;;;3.83;2.80;;;;;;;25.53;66.87;101041.54;1730162;81;21141;-88
2022/06/17 07:44:37;;;;;;;4.60;2.75;;;;;;;25.64;65.98;101042.77;1736061;82;21085;-87
2022/06/17 07:47:05;;;;;;;6.42;2.80;;;;;;;25.66;58.07;101040.72;1744139;81;21097;-86
2022/06/17 07:49:33;;;;;;;6.10;2.62;;;;;;;25.63;60.69;101040.63;1777116;79;21011;-88
2022/06/17 07:52:02;;;;;;;2.90;2.60;;;;;;;25.66;60.41;101040.72;1782499;79;21159;-86
2022/06/17 07:54:29;;;;;;;3.30;2.87;;;;;;;25.71;63.19;101034.25;1782303;79;21101;-87
2022/06/17 07:56:56;;;;;;;4.72;3.20;;;;;;;25.74;61.09;101039.18;1785790;78;21074;-85
2022/06/17 07:59:23;;;;;;;5.92;2.98;;;;;;;25.73;60.36;101036.70;1737180;82;21050;-86
2022/06/17 08:01:51;;;;;;;3.40;2.85;;;;;;;25.67;64.78;101033.84;1711886;82;21575;-86
2022/06/17 08:04:19;;;;;;;4.67;3.20;;;;;;;25.65;57.51;101035.08;1734292;82;20986;-86
2022/06/17 08:06:49;;;;;;;5.67;3.15;;;;;;;25.69;58.46;101036.29;1712486;83;21024;-86
2022/06/17 08:09:19;;;;;;;7.75;3.08;;;;;;;25.80;57.54;101034.84;1733009;81;21027;-85
2022/06/17 08:11:49;;;;;;;4.15;2.75;;;;;;;25.90;57.58;101030.45;1734542;81;21078;-86
2022/06/17 08:14:16;;;;;;;6.08;3.27;;;;;;;25.94;59.14;101029.83;1787212;79;21053;-86
2022/06/17 08:16:45;;;;;;;3.40;2.80;;;;;;;26.02;59.17;101030.10;1785555;79;21116;-86
2022/06/17 08:19:12;;;;;;;2.10;1.90;;;;;;;26.12;54.68;101035.03;1781372;79;21053;-85
2022/06/17 08:21:40;;;;;;;3.37;2.02;;;;;;;26.19;56.62;101032.36;1736895;81;21037;-86
2022/06/17 08:24:08;;;;;;;2.70;2.10;;;;;;;26.27;59.20;101030.30;1739773;81;21045;-86
2022/06/17 08:26:36;;;;;;;5.42;2.17;;;;;;;26.38;59.69;101030.66;1719607;82;21077;-85
2022/06/17 08:29:03;;;;;;;2.50;1.80;;;;;;;26.47;50.85;101027.25;1720132;82;21982;-86
2022/06/17 08:31:30;;;;;;;2.80;2.15;;;;;;;26.50;51.53;101032.16;1725665;81;21016;-86
2022/06/17 08:33:57;;;;;;;3.15;2.83;;;;;;;26.54;51.58;101030.19;1724678;81;20967;-86
2022/06/17 08:36:28;;;;;;;4.45;2.40;;;;;;;26.55;48.24;101029.69;1785433;79;20979;-86
2022/06/17 08:39:00;;;;;;;5.10;3.20;;;;;;;26.52;48.40;101028.77;1789673;79;21017;-85
2022/06/17 08:41:35;;;;;;;4.87;2.90;;;;;;;26.52;51.44;101027.43;1774430;79;21110;-85
2022/06/17 08:44:23;;;;;;;3.62;2.80;;;;;;;26.54;48.63;101028.05;1792485;79;21527;-86
2022/06/17 08:47:07;;;;;;;4.08;2.62;;;;;;;26.60;52.23;101024.52;1735036;82;20999;-86
2022/06/17 08:49:51;;;;;;;3.25;2.50;;;;;;;26.71;49.44;101021.69;1746376;81;21011;-85
2022/06/17 08:52:44;;;;;;;3.70;2.67;;;;;;;26.79;50.66;101023.34;1721491;81;21031;-85
2022/06/17 08:55:45;;;;;;;4.62;2.60;;;;;;;26.89;48.90;101023.17;1776261;80;21810;-86
2022/06/17 08:58:19;;;;;;;;;;;;;;;26.99;50.95;101028.04;1773885;80;21153;-87
2022/06/17 09:00:57;;;;;;;5.25;3.30;;;;;;;27.10;52.08;101023.05;1797962;79;20209;-86
2022/06/17 09:03:47;;;;;;;3.58;3.00;;;;;;;27.19;51.15;101021.77;1726042;81;21052;-91
2022/06/17 09:06:56;;;;;;;4.72;2.80;;;;;;;27.31;51.43;101017.88;1725424;81;21078;-87
2022/06/17 09:09:59;;;;;;;4.65;3.00;;;;;;;27.41;50.43;101018.19;1780013;79;21262;-86
2022/06/17 09:12:59;;;;;;;3.67;2.80;;;;;;;27.52;49.59;101018.05;1789545;78;21477;-86
2022/06/17 09:15:49;;;;;;;3.83;2.83;;;;;;;27.58;47.93;101015.83;1785978;80;21033;-86
2022/06/17 09:18:37;;;;;;;2.77;2.40;;;;;;;27.49;47.43;101017.94;1779520;79;21061;-85
2022/06/17 09:21:24;;;;;;;3.62;2.52;;;;;;;27.16;46.75;101020.84;1782770;79;21670;-88
2022/06/17 09:23:52;;;;;;;3.30;2.60;;;;;;;26.81;48.16;101014.58;1774398;80;21164;-85
2022/06/17 09:26:31;;;;;;;4.58;2.17;;;;;;;26.60;46.96;101009.30;1789339;79;21046;-86
2022/06/17 09:29:31;;;;;;;2.67;2.10;;;;;;;26.63;45.21;101014.77;1789034;79;21580;-86
2022/06/17 09:32:15;;;;;;;2.98;2.37;;;;;;;26.68;44.11;101008.78;1776273;80;21501;-86
2022/06/17 09:34:57;;;;;;;5.35;2.50;;;;;;;26.79;48.31;101004.11;1796127;79;20926;-86
2022/06/17 09:37:37;;;;;;;5.92;2.85;;;;;;;26.98;47.33;101012.23;1792569;78;21832;-87
2022/06/17 09:40:27;;;;;;;3.35;2.02;;;;;;;27.12;49.25;101011.11;1782203;80;20996;-87
2022/06/17 09:43:01;;;;;;;4.20;2.50;;;;;;;27.35;47.15;101004.36;1776847;79;21070;-88
2022/06/17 09:45:40;;;;;;;5.37;2.17;;;;;;;27.51;40.50;101005.72;1788501;79;21127;-86
2022/06/17 09:48:42;;;;;;;2.93;2.00;;;;;;;27.50;39.98;101004.08;1803800;79;20975;-87
2022/06/17 09:51:24;;;;;;;2.12;1.70;;;;;;;27.47;37.81;101000.48;1791126;79;21233;-87
2022/06/17 09:53:57;;;;;;;3.35;2.10;;;;;;;27.50;38.60;101004.08;1779600;80;21868;-89
2022/06/17 09:57:12;;;;;;;3.75;2.33;;;;;;;27.50;37.30;100998.19;1774990;79;21030;-88
2022/06/17 09:59:47;;;;;;;2.27;2.10;;;;;;;27.38;40.12;101000.73;1727799;82;21198;-87
2022/06/17 10:02:34;;;;;;;3.05;2.70;;;;;;;27.10;43.18;101009.16;1696133;83;21099;-87
2022/06/17 10:05:17;;;;;;;3.33;2.85;;;;;;;27.08;42.38;101004.58;1739992;80;21288;-88
2022/06/17 10:07:57;;;;;;;4.28;2.80;;;;;;;27.20;44.50;101002.83;1804156;79;21626;-89
2022/06/17 10:10:47;;;;;;;4.22;2.87;;;;;;;27.44;45.76;101000.95;1778408;80;21040;-91
2022/06/17 10:13:43;;;;;;;6.10;3.20;;;;;;;27.53;41.41;100999.10;1781515;79;21048;-89
2022/06/17 10:20:04;;;;;;;3.85;2.60;;;;;;;27.57;39.62;100989.28;1777617;79;21248;-87
2022/06/17 10:22:41;;;;;;;3.65;2.35;;;;;;;27.48;42.38;100992.77;1789742;79;21533;-87
2022/06/17 10:25:40;;;;;;;3.25;2.70;;;;;;;27.47;41.83;100988.45;1777076;80;21066;-87
2022/06/17 10:28:38;;;;;;;4.97;2.60;;;;;;;27.51;40.49;100980.31;1784066;79;21033;-88
2022/06/17 10:31:37;;;;;;;4.53;2.80;;;;;;;27.49;37.35;100980.51;1725092;82;21098;-87
2022/06/17 10:34:45;;;;;;;5.37;3.00;;;;;;;27.54;38.34;100979.35;1716028;82;21261;-87
2022/06/17 10:37:13;;;;;;;3.12;2.83;;;;;;;27.67;41.41;100975.73;1722487;82;21629;-90
2022/06/17 10:39:43;;;;;;;4.75;2.98;;;;;;;27.79;38.16;100974.48;1736030;81;21021;-88
2022/06/17 10:42:16;;;;;;;4.33;2.85;;;;;;;27.84;39.40;100972.48;1721774;82;21506;-87
2022/06/17 10:44:49;;;;;;;3.10;2.25;;;;;;;27.88;38.69;100968.31;1726743;81;21010;-87
2022/06/17 10:47:40;;;;;;;3.40;2.72;;;;;;;27.94;41.91;100970.09;1798641;79;21331;-87
2022/06/17 10:50:19;;;;;;;4.08;2.70;;;;;;;27.90;36.68;100964.90;1784729;78;21098;-88
2022/06/17 10:52:55;;;;;;;4.05;2.75;;;;;;;27.89;40.20;100964.60;1782151;80;21056;-87
2022/06/17 10:55:37;;;;;;;3.12;2.62;;;;;;;28.05;37.70;100963.70;1799646;79;21022;-87
2022/06/17 10:58:17;;;;;;;3.33;2.60;;;;;;;28.21;36.44;100960.45;1776582;80;21535;-87
2022/06/17 11:00:59;;;;;;;5.20;3.20;;;;;;;28.24;38.44;100956.50;1786497;79;20974;-86
2022/06/17 11:03:33;;;;;;;;;;;;;;;28.16;37.73;100958.45;1800384;79;21084;-87
2022/06/17 11:06:20;;;;;;;3.72;2.45;;;;;;;28.22;36.14;100957.24;1788369;79;20193;-89
2022/06/17 11:09:03;;;;;;;4.42;3.08;;;;;;;28.26;35.98;100949.88;1782233;79;21108;-89
2022/06/17 11:14:27;;;;;;;5.37;2.60;;;;;;;28.44;37.65;100934.83;1779335;79;21809;-88
2022/06/17 11:16:54;;;;;;;3.12;2.55;;;;;;;28.54;37.86;100943.14;1779386;79;21480;-86
2022/06/17 11:19:26;;;;;;;3.92;3.15;;;;;;;28.44;37.52;100946.34;1776899;79;21593;-86
2022/06/17 11:21:59;;;;;;;4.00;3.30;;;;;;;28.13;35.18;100942.02;1779700;80;21091;-87
2022/06/17 11:24:33;;;;;;;5.58;3.00;;;;;;;27.84;38.71;100941.72;1771496;80;21042;-87
2022/06/17 11:27:41;;;;;;;7.17;3.37;;;;;;;27.57;40.80;100941.98;1782369;80;21335;-88
2022/06/17 11:30:28;;;;;;;4.78;3.72;;;;;;;27.51;42.62;100936.19;1790982;78;21001;-87
2022/06/17 11:33:00;;;;;;;3.52;3.22;;;;;;;27.62;40.89;100934.11;1790412;79;21013;-88
2022/06/17 11:35:37;;;;;;;4.03;3.62;;;;;;;27.77;43.28;100937.77;1784921;79;21022;-88
2022/06/17 11:38:12;;;;;;;3.65;2.87;;;;;;;27.95;40.50;100938.28;1780671;79;21122;-87
2022/06/17 11:40:51;;;;;;;3.85;3.37;;;;;;;28.11;39.12;100934.73;1780977;79;21264;-87
2022/06/17 11:43:33;;;;;;;5.78;3.37;;;;;;;28.19;38.20;100934.42;1736514;81;20999;-86
2022/06/17 11:46:12;;;;;;;4.25;3.00;;;;;;;28.40;40.35;100926.97;1714828;83;21074;-86
2022/06/17 11:48:56;;;;;;;6.25;3.30;;;;;;;28.52;39.04;100924.33;1780563;79;21022;-89
2022/06/17 11:51:32;;;;;;;4.78;3.33;;;;;;;28.54;37.92;100927.07;1780188;79;21040;-90
2022/06/17 11:54:06;;;;;;;3.87;3.52;;;;;;;28.47;37.62;100921.80;1780971;79;21955;-87
2022/06/17 11:56:43;;;;;;;3.77;3.40;;;;;;;28.43;38.73;100919.80;1782362;79;21457;-87
2022/06/17 11:59:18;;;;;;;3.77;2.47;;;;;;;28.45;36.94;100923.08;1781767;79;21037;-86
2022/06/17 12:02:05;;;;;;;5.92;2.83;;;;;;;28.53;37.50;100924.09;1782012;79;21610;-88
2022/06/17 12:04:49;;;;;;;4.60;3.70;;;;;;;28.49;37.35;100921.56;1790262;79;21042;-86
2022/06/17 12:07:49;;;;;;;3.62;3.33;;;;;;;28.31;37.30;100921.92;1781873;79;21139;-87
2022/06/17 12:10:31;;;;;;;10.03;3.70;;;;;;;28.06;37.41;100920.68;1780196;79;21054;-86
2022/06/17 12:13:05;;;;;;;4.87;3.60;;;;;;;27.83;40.04;100911.98;1735138;80;20998;-86
2022/06/17 12:16:14;;;;;;;4.55;3.95;;;;;;;27.66;39.21;100912.58;1773429;79;21855;-91